createdAt,value
2022-10-01T00:01:25.090Z,12.39
2022-10-01T00:03:53.357Z,12.40
2022-10-01T00:06:22.505Z,12.40
2022-10-01T00:08:50.971Z,12.41
2022-10-01T00:13:55.843Z,12.43
2022-10-01T00:16:25.781Z,12.45
2022-10-01T00:18:54.275Z,12.45
2022-10-01T00:21:25.250Z,12.46
2022-10-01T00:23:58.360Z,12.47
2022-10-01T00:26:29.278Z,12.47
2022-10-01T00:29:01.554Z,12.48
2022-10-01T00:31:30.267Z,12.48
2022-10-01T00:33:59.594Z,12.48
2022-10-01T00:36:28.039Z,12.50
2022-10-01T00:39:00.992Z,12.50
2022-10-01T00:41:31.513Z,12.50
2022-10-01T00:44:01.715Z,12.51
2022-10-01T00:46:39.339Z,12.51
2022-10-01T00:49:14.695Z,12.52
2022-10-01T00:51:47.179Z,12.53
2022-10-01T00:54:19.829Z,12.54
2022-10-01T00:56:47.894Z,12.53
2022-10-01T00:59:16.669Z,12.54
2022-10-01T01:01:44.765Z,12.54
2022-10-01T01:04:19.551Z,12.54
2022-10-01T01:06:56.060Z,12.54
2022-10-01T01:09:30.780Z,12.55
2022-10-01T01:12:37.686Z,12.55
2022-10-01T01:18:03.454Z,12.56
2022-10-01T01:20:51.961Z,12.56
2022-10-01T01:29:18.552Z,12.59
2022-10-01T01:31:47.414Z,12.57
2022-10-01T01:34:22.044Z,12.59
2022-10-01T01:36:58.897Z,12.61
2022-10-01T01:39:30.087Z,12.62
2022-10-01T01:42:03.039Z,12.62
2022-10-01T01:44:35.887Z,12.62
2022-10-01T01:47:07.686Z,12.62
2022-10-01T01:49:36.126Z,12.63
2022-10-01T01:52:09.836Z,12.63
2022-10-01T01:54:37.146Z,12.64
2022-10-01T01:57:05.434Z,12.63
2022-10-01T01:59:34.161Z,12.63
2022-10-01T02:02:01.758Z,12.63
2022-10-01T02:04:55.198Z,12.64
2022-10-01T02:10:23.210Z,12.63
2022-10-01T02:26:38.613Z,12.53
2022-10-01T02:29:15.581Z,12.53
2022-10-01T02:31:42.950Z,12.52
2022-10-01T02:34:12.845Z,12.51
2022-10-01T02:36:42.404Z,12.52
2022-10-01T02:39:11.092Z,12.51
2022-10-01T02:41:38.382Z,12.51
2022-10-01T02:44:11.974Z,12.48
2022-10-01T02:47:04.753Z,12.46
2022-10-01T02:49:32.358Z,12.43
2022-10-01T02:52:25.011Z,12.42
2022-10-01T02:55:15.316Z,12.38
2022-10-01T02:57:43.154Z,12.38
2022-10-01T03:00:15.569Z,12.37
2022-10-01T03:02:43.022Z,12.36
2022-10-01T03:05:10.471Z,12.34
2022-10-01T03:07:38.355Z,12.34
2022-10-01T03:10:07.719Z,12.33
2022-10-01T03:12:36.114Z,12.33
2022-10-01T03:15:04.240Z,12.33
2022-10-01T03:17:31.544Z,12.34
2022-10-01T03:19:58.876Z,12.35
2022-10-01T03:22:26.301Z,12.34
2022-10-01T03:24:54.352Z,12.33
2022-10-01T03:27:22.730Z,12.31
2022-10-01T03:29:50.665Z,12.29
2022-10-01T03:32:18.882Z,12.28
2022-10-01T03:34:46.654Z,12.28
2022-10-01T03:37:13.929Z,12.29
2022-10-01T03:39:41.228Z,12.28
2022-10-01T03:42:08.872Z,12.28
2022-10-01T03:44:36.166Z,12.26
2022-10-01T03:47:03.432Z,12.25
2022-10-01T03:49:30.785Z,12.26
2022-10-01T03:51:58.156Z,12.25
2022-10-01T03:54:25.771Z,12.21
2022-10-01T03:56:53.029Z,12.20
2022-10-01T03:59:20.586Z,12.22
2022-10-01T04:01:48.273Z,12.22
2022-10-01T04:04:15.683Z,12.21
2022-10-01T04:06:43.054Z,12.20
2022-10-01T04:09:10.381Z,12.20
2022-10-01T04:11:38.112Z,12.22
2022-10-01T04:14:06.010Z,12.22
2022-10-01T04:16:36.599Z,12.24
2022-10-01T04:19:05.157Z,12.26
2022-10-01T04:21:32.898Z,12.25
2022-10-01T04:24:01.365Z,12.25
2022-10-01T04:26:28.843Z,12.25
2022-10-01T04:28:56.510Z,12.27
2022-10-01T04:31:25.148Z,12.27
2022-10-01T04:33:54.176Z,12.29
2022-10-01T04:36:21.978Z,12.31
2022-10-01T04:38:56.627Z,12.33
2022-10-01T04:41:27.030Z,12.33
2022-10-01T04:43:54.315Z,12.34
2022-10-01T04:46:21.718Z,12.37
2022-10-01T04:48:54.638Z,12.38
2022-10-01T04:51:22.451Z,12.40
2022-10-01T04:53:51.910Z,12.43
2022-10-01T04:56:24.640Z,12.46
2022-10-01T04:58:54.955Z,12.51
2022-10-01T05:01:22.446Z,12.54
2022-10-01T05:03:49.934Z,12.59
2022-10-01T05:06:17.377Z,12.62
2022-10-01T05:08:45.343Z,12.67
2022-10-01T05:11:12.926Z,12.69
2022-10-01T05:13:40.414Z,12.73
2022-10-01T05:16:08.336Z,12.74
2022-10-01T05:18:35.931Z,12.79
2022-10-01T05:21:07.304Z,12.84
2022-10-01T05:23:34.732Z,12.91
2022-10-01T05:26:04.529Z,12.94
2022-10-01T05:28:33.029Z,12.98
2022-10-01T05:31:02.987Z,13.04
2022-10-01T05:33:31.443Z,13.07
2022-10-01T05:35:59.174Z,13.11
2022-10-01T05:38:26.726Z,13.17
2022-10-01T05:40:54.137Z,13.22
2022-10-01T05:43:21.639Z,13.28
2022-10-01T05:45:50.017Z,13.37
2022-10-01T05:48:17.555Z,13.43
2022-10-01T05:50:45.311Z,13.50
2022-10-01T05:53:14.248Z,13.57
2022-10-01T05:55:41.815Z,13.60
2022-10-01T05:58:11.556Z,13.64
2022-10-01T06:00:41.075Z,13.66
2022-10-01T06:03:09.323Z,13.68
2022-10-01T06:05:37.150Z,13.71
2022-10-01T06:08:07.804Z,13.71
2022-10-01T06:10:37.153Z,13.70
2022-10-01T06:13:05.919Z,13.66
2022-10-01T06:15:37.971Z,13.66
2022-10-01T06:18:07.571Z,13.67
2022-10-01T06:20:35.681Z,13.68
2022-10-01T06:23:06.053Z,13.67
2022-10-01T06:25:36.711Z,13.68
2022-10-01T06:28:06.230Z,13.67
2022-10-01T06:30:36.948Z,13.67
2022-10-01T06:33:07.473Z,13.65
2022-10-01T06:35:39.836Z,13.66
2022-10-01T06:38:08.381Z,13.69
2022-10-01T06:40:35.957Z,13.72
2022-10-01T06:43:04.068Z,13.76
2022-10-01T06:45:31.876Z,13.77
2022-10-01T06:48:03.383Z,13.77
2022-10-01T06:50:32.446Z,13.76
2022-10-01T06:53:00.944Z,13.78
2022-10-01T06:55:31.747Z,13.76
2022-10-01T06:58:01.741Z,13.73
2022-10-01T07:00:31.495Z,13.73
2022-10-01T07:02:59.915Z,13.71
2022-10-01T07:05:28.331Z,13.70
2022-10-01T07:07:55.797Z,13.70
2022-10-01T07:10:23.560Z,13.68
2022-10-01T07:12:51.165Z,13.68
2022-10-01T07:15:21.500Z,13.66
2022-10-01T07:17:51.184Z,13.64
2022-10-01T07:20:20.950Z,13.65
2022-10-01T07:22:49.273Z,13.66
2022-10-01T07:25:17.530Z,13.70
2022-10-01T07:27:45.162Z,13.73
2022-10-01T07:30:12.843Z,13.82
2022-10-01T07:32:43.423Z,13.93
2022-10-01T07:35:11.627Z,14.05
2022-10-01T07:37:39.036Z,14.15
2022-10-01T07:40:12.044Z,14.21
2022-10-01T07:42:39.516Z,14.27
2022-10-01T07:45:07.667Z,14.29
2022-10-01T07:47:35.379Z,14.31
2022-10-01T07:50:03.461Z,14.31
2022-10-01T07:52:31.527Z,14.30
2022-10-01T07:54:58.962Z,14.31
2022-10-01T07:57:26.441Z,14.31
2022-10-01T07:59:56.018Z,14.33
2022-10-01T08:02:24.735Z,14.38
2022-10-01T08:05:12.000Z,14.44
2022-10-01T08:07:39.403Z,14.55
2022-10-01T08:10:07.220Z,14.63
2022-10-01T08:12:34.844Z,14.69
2022-10-01T08:15:03.303Z,14.74
2022-10-01T08:17:30.971Z,14.78
2022-10-01T08:19:58.423Z,14.80
2022-10-01T08:22:25.875Z,14.80
2022-10-01T08:24:53.521Z,14.84
2022-10-01T08:27:20.968Z,14.85
2022-10-01T08:29:48.555Z,14.89
2022-10-01T08:32:17.176Z,14.90
2022-10-01T08:34:45.400Z,14.95
2022-10-01T08:37:13.277Z,14.99
2022-10-01T08:39:40.764Z,15.04
2022-10-01T08:42:41.878Z,15.09
2022-10-01T08:45:18.050Z,15.19
2022-10-01T08:47:56.327Z,15.26
2022-10-01T08:50:39.233Z,15.35
2022-10-01T08:53:15.717Z,15.37
2022-10-01T08:55:44.597Z,15.39
2022-10-01T08:58:20.140Z,15.40
2022-10-01T09:00:50.132Z,15.40
2022-10-01T09:03:19.289Z,15.43
2022-10-01T09:08:47.597Z,15.41
2022-10-01T09:11:25.200Z,15.41
2022-10-01T09:14:19.686Z,15.40
2022-10-01T09:17:04.682Z,15.38
2022-10-01T09:19:59.248Z,15.35
2022-10-01T09:25:29.270Z,15.39
2022-10-01T09:28:03.143Z,15.43
2022-10-01T09:30:32.228Z,15.49
2022-10-01T09:33:12.164Z,15.57
2022-10-01T09:40:59.061Z,15.63
2022-10-01T09:43:31.389Z,15.60
2022-10-01T09:45:59.409Z,15.56
2022-10-01T09:48:38.091Z,15.54
2022-10-01T09:56:38.008Z,15.53
2022-10-01T09:59:12.029Z,15.51
2022-10-01T10:04:23.901Z,15.49
2022-10-01T10:06:53.691Z,15.49
2022-10-01T10:09:28.565Z,15.46
2022-10-01T10:11:58.360Z,15.44
2022-10-01T10:14:59.676Z,15.42
2022-10-01T10:17:28.138Z,15.42
2022-10-01T10:19:55.842Z,15.40
2022-10-01T10:22:27.464Z,15.39
2022-10-01T10:24:59.282Z,15.39
2022-10-01T10:27:30.499Z,15.36
2022-10-01T10:30:14.718Z,15.34
2022-10-01T10:32:45.966Z,15.35
2022-10-01T10:35:20.851Z,15.38
2022-10-01T10:37:51.910Z,15.41
2022-10-01T10:40:29.081Z,15.40
2022-10-01T10:42:59.129Z,15.37
2022-10-01T10:45:33.999Z,15.34
2022-10-01T10:48:04.883Z,15.32
2022-10-01T10:50:37.014Z,15.28
2022-10-01T10:53:22.732Z,15.27
2022-10-01T10:56:08.001Z,15.27
2022-10-01T10:58:42.658Z,15.29
2022-10-01T11:01:16.550Z,15.30
2022-10-01T11:03:53.553Z,15.32
2022-10-01T11:06:21.104Z,15.35
2022-10-01T11:08:57.901Z,15.39
2022-10-01T11:14:45.207Z,15.55
2022-10-01T11:28:40.647Z,16.32
2022-10-01T11:31:14.615Z,16.62
2022-10-01T11:34:10.650Z,17.01
2022-10-01T11:39:19.218Z,17.05
2022-10-01T11:47:21.118Z,17.09
2022-10-01T11:55:39.127Z,16.94
2022-10-01T12:01:01.675Z,17.22
2022-10-01T12:03:43.751Z,17.39
2022-10-01T12:06:15.287Z,17.49
2022-10-01T12:08:53.471Z,17.48
2022-10-01T12:11:30.227Z,17.39
2022-10-01T12:14:03.990Z,17.32
2022-10-01T12:16:45.101Z,17.24
2022-10-01T12:21:56.972Z,17.34
2022-10-01T12:24:31.162Z,17.41
2022-10-01T12:27:28.065Z,17.45
2022-10-01T12:30:05.281Z,17.45
2022-10-01T12:35:57.483Z,17.35
2022-10-01T12:38:44.475Z,17.27
2022-10-01T12:49:49.654Z,17.24
2022-10-01T13:00:50.915Z,17.65
2022-10-01T13:12:12.421Z,17.24
2022-10-01T13:14:44.814Z,17.12
2022-10-01T13:20:20.148Z,16.94
2022-10-01T13:23:18.958Z,16.89
2022-10-01T13:32:00.690Z,16.54
2022-10-01T13:37:32.217Z,16.32
2022-10-01T13:40:00.635Z,16.26
2022-10-01T13:45:08.159Z,16.15
2022-10-01T13:47:41.261Z,16.13
2022-10-01T13:50:22.425Z,16.09
2022-10-01T13:52:51.068Z,16.06
2022-10-01T13:55:29.352Z,16.02
2022-10-01T13:58:07.616Z,15.96
2022-10-01T14:00:35.188Z,15.90
2022-10-01T14:03:42.456Z,15.82
2022-10-01T14:06:18.918Z,15.71
2022-10-01T14:11:49.014Z,15.56
2022-10-01T14:17:13.479Z,15.39
2022-10-01T14:19:47.519Z,15.33
2022-10-01T14:22:41.614Z,15.29
2022-10-01T14:25:36.603Z,15.25
2022-10-01T14:30:56.134Z,15.21
2022-10-01T14:36:44.508Z,15.17
2022-10-01T14:41:55.847Z,15.09
2022-10-01T14:47:11.755Z,15.02
2022-10-01T14:49:39.270Z,14.99
2022-10-01T14:52:19.143Z,14.94
2022-10-01T14:54:51.912Z,14.91
2022-10-01T15:00:11.661Z,14.89
2022-10-01T15:05:39.928Z,14.87
2022-10-01T15:08:39.879Z,14.84
2022-10-01T15:11:12.642Z,14.81
2022-10-01T15:13:43.558Z,14.81
2022-10-01T15:16:16.886Z,15.11
2022-10-01T15:18:49.616Z,15.11
2022-10-01T15:21:23.410Z,14.98
2022-10-01T15:23:51.557Z,14.87
2022-10-01T15:26:29.795Z,14.79
2022-10-01T15:29:12.717Z,14.71
2022-10-01T15:31:49.943Z,14.67
2022-10-01T15:34:21.526Z,14.61
2022-10-01T15:36:51.038Z,14.56
2022-10-01T15:42:03.353Z,14.52
2022-10-01T15:44:50.865Z,14.47
2022-10-01T15:58:32.168Z,14.32
2022-10-01T16:01:05.442Z,14.31
2022-10-01T16:06:35.441Z,14.28
2022-10-01T16:12:04.323Z,14.20
2022-10-01T16:14:59.910Z,14.15
2022-10-01T16:17:30.149Z,14.13
2022-10-01T16:20:01.673Z,14.12
2022-10-01T16:22:35.632Z,14.10
2022-10-01T16:30:27.271Z,14.06
2022-10-01T16:32:55.919Z,14.06
2022-10-01T16:35:25.821Z,14.05
2022-10-01T16:37:56.304Z,14.03
2022-10-01T16:40:26.558Z,14.03
2022-10-01T16:42:54.843Z,14.02
2022-10-01T16:45:25.043Z,14.02
2022-10-01T16:47:53.821Z,14.00
2022-10-01T16:50:22.264Z,14.00
2022-10-01T16:52:54.692Z,14.00
2022-10-01T16:55:30.020Z,14.01
2022-10-01T16:57:57.353Z,14.02
2022-10-01T17:00:26.889Z,14.00
2022-10-01T17:02:56.524Z,14.00
2022-10-01T17:05:27.892Z,14.01
2022-10-01T17:08:01.164Z,14.01
2022-10-01T17:10:32.259Z,13.99
2022-10-01T17:12:59.933Z,13.97
2022-10-01T17:15:28.320Z,13.96
2022-10-01T17:17:57.454Z,13.92
2022-10-01T17:20:28.757Z,13.90
2022-10-01T17:22:58.057Z,13.88
2022-10-01T17:25:32.325Z,13.87
2022-10-01T17:28:01.400Z,13.87
2022-10-01T17:30:30.228Z,13.87
2022-10-01T17:33:00.243Z,13.87
2022-10-01T17:35:30.031Z,13.88
2022-10-01T17:37:58.590Z,13.88
2022-10-01T17:40:30.167Z,13.88
2022-10-01T17:42:59.620Z,13.88
2022-10-01T17:45:27.012Z,13.87
2022-10-01T17:47:54.907Z,13.87
2022-10-01T17:50:22.692Z,13.87
2022-10-01T17:52:50.684Z,13.87
2022-10-01T17:55:20.113Z,13.86
2022-10-01T17:57:47.545Z,13.86
2022-10-01T18:00:17.351Z,13.86
2022-10-01T18:02:45.798Z,13.84
2022-10-01T18:05:17.151Z,13.83
2022-10-01T18:07:45.895Z,13.84
2022-10-01T18:10:13.796Z,13.83
2022-10-01T18:12:41.563Z,13.83
2022-10-01T18:15:09.992Z,13.86
2022-10-01T18:20:26.244Z,13.91
2022-10-01T18:22:53.746Z,13.93
2022-10-01T18:25:21.200Z,13.92
2022-10-01T18:27:50.428Z,13.92
2022-10-01T18:30:18.689Z,13.92
2022-10-01T18:32:51.514Z,13.94
2022-10-01T18:35:22.263Z,13.96
2022-10-01T18:37:55.032Z,13.99
2022-10-01T18:40:29.964Z,14.02
2022-10-01T18:43:07.810Z,14.05
2022-10-01T18:46:03.836Z,14.07
2022-10-01T18:52:15.946Z,14.13
2022-10-01T18:57:42.370Z,14.12
2022-10-01T19:00:16.748Z,14.11
2022-10-01T19:08:52.069Z,14.10
2022-10-01T19:14:39.912Z,14.11
2022-10-01T19:17:34.100Z,14.12
2022-10-01T19:20:29.549Z,14.14
2022-10-01T19:26:28.800Z,14.17
2022-10-01T19:37:30.249Z,14.21
2022-10-01T19:40:05.665Z,14.20
2022-10-01T19:42:38.637Z,14.21
2022-10-01T19:45:21.705Z,14.21
2022-10-01T19:50:34.048Z,14.24
2022-10-01T19:53:03.741Z,14.24
2022-10-01T19:55:39.513Z,14.26
2022-10-01T19:58:18.060Z,14.27
2022-10-01T20:00:51.211Z,14.27
2022-10-01T20:03:39.655Z,14.27
2022-10-01T20:08:55.957Z,14.27
2022-10-01T20:16:45.522Z,14.22
2022-10-01T20:19:42.600Z,14.21
2022-10-01T20:22:45.749Z,14.21
2022-10-01T20:25:24.741Z,14.21
2022-10-01T20:30:39.631Z,14.26
2022-10-01T20:36:13.710Z,14.26
2022-10-01T20:39:05.706Z,14.26
2022-10-01T20:41:44.344Z,14.28
2022-10-01T20:44:17.649Z,14.29
2022-10-01T20:54:44.889Z,14.27
2022-10-01T20:59:54.828Z,14.26
2022-10-01T21:08:02.360Z,14.27
2022-10-01T21:10:42.771Z,14.27
2022-10-01T21:16:15.205Z,14.29
2022-10-01T21:24:39.268Z,14.27
2022-10-01T21:38:28.375Z,14.27
2022-10-01T21:46:40.381Z,14.23
2022-10-01T21:49:45.747Z,14.20
2022-10-01T21:55:20.020Z,14.17
2022-10-01T21:58:17.070Z,14.13
2022-10-01T22:01:11.452Z,14.08
2022-10-01T22:03:48.560Z,14.04
2022-10-01T22:06:27.282Z,14.02
2022-10-01T22:09:06.384Z,14.01
2022-10-01T22:11:38.801Z,14.00
2022-10-01T22:14:16.798Z,13.99
2022-10-01T22:19:49.115Z,13.95
2022-10-01T22:22:30.451Z,13.92
2022-10-01T22:25:00.257Z,13.90
2022-10-01T22:30:13.880Z,13.86
2022-10-01T22:38:16.838Z,13.81
2022-10-01T22:40:49.867Z,13.78
2022-10-01T22:43:17.333Z,13.75
2022-10-01T22:46:20.374Z,13.73
2022-10-01T22:52:02.870Z,13.71
2022-10-01T22:55:03.023Z,13.68
2022-10-01T23:00:15.908Z,13.64
2022-10-01T23:08:27.186Z,13.58
2022-10-01T23:11:34.090Z,13.59
2022-10-01T23:25:18.192Z,13.51
2022-10-01T23:30:24.139Z,13.46
2022-10-01T23:41:19.616Z,13.42
2022-10-01T23:43:49.534Z,13.41
2022-10-01T23:46:22.871Z,13.39
2022-10-01T23:49:02.357Z,13.36
2022-10-01T23:51:40.148Z,13.32
2022-10-01T23:54:38.808Z,13.29
2022-10-01T23:57:18.468Z,13.26
